Time;durP1;ratioP1;P1;durP2;ratioP2;P2;SDS_P1;SDS_P2;PMS_P1;PMS_P2;Temp;Humidity;BMP_temperature;BMP_pressure;BME280_temperature;BME280_humidity;BME280_pressure;Samples;Min_cycle;Max_cycle;Signal;HPM_P1;HPM_P2
2022/12/14 00:01:26;;;;;;;4.93;2.95;;;-3.50;99.90;;;;;;5063188;28;20047;-83
2022/12/14 00:03:53;;;;;;;0.43;0.43;;;-3.50;99.90;;;;;;5096054;28;20047;-83
2022/12/14 00:06:18;;;;;;;3.03;2.92;;;-3.50;99.90;;;;;;5095857;28;20495;-83
2022/12/14 00:08:46;;;;;;;0.30;0.30;;;-3.50;99.90;;;;;;5096429;28;20043;-84
2022/12/14 00:11:13;;;;;;;0.47;0.47;;;-3.50;99.90;;;;;;5079124;28;20054;-83
2022/12/14 00:13:40;;;;;;;3.10;0.63;;;-3.50;99.90;;;;;;5078788;28;20060;-84
2022/12/14 00:16:12;;;;;;;0.45;0.45;;;-3.50;99.90;;;;;;5095965;28;20181;-83
2022/12/14 00:18:39;;;;;;;0.63;0.63;;;-3.60;99.90;;;;;;5079219;28;20048;-83
2022/12/14 00:21:10;;;;;;;1.02;0.98;;;-3.60;99.90;;;;;;5096169;28;20124;-84
2022/12/14 00:23:37;;;;;;;0.63;0.47;;;-3.60;99.90;;;;;;5078808;28;20032;-83
2022/12/14 00:26:19;;;;;;;2.65;2.25;;;-3.60;99.90;;;;;;5079323;28;20130;-84
2022/12/14 00:28:46;;;;;;;0.57;0.57;;;-3.50;99.90;;;;;;5096205;28;20410;-83
2022/12/14 00:31:12;;;;;;;1.70;0.63;;;-3.50;99.90;;;;;;5064787;28;20044;-83
2022/12/14 00:33:38;;;;;;;0.30;0.30;;;-3.50;99.90;;;;;;5067164;28;20141;-83
2022/12/14 00:36:05;;;;;;;0.28;0.28;;;-3.10;99.90;;;;;;5099643;28;20050;-84
2022/12/14 00:38:31;;;;;;;0.90;0.57;;;-3.50;99.90;;;;;;5082765;28;20138;-83
2022/12/14 00:40:57;;;;;;;0.73;0.73;;;-3.50;99.90;;;;;;5082377;28;20471;-84
2022/12/14 00:43:23;;;;;;;1.50;1.40;;;-3.50;99.90;;;;;;5082795;28;20134;-83
2022/12/14 00:45:49;;;;;;;0.10;0.10;;;-3.50;99.90;;;;;;5098570;28;20075;-84
2022/12/14 00:48:17;;;;;;;0.70;0.70;;;-3.60;99.90;;;;;;5066237;28;20451;-84
2022/12/14 00:50:44;;;;;;;0.90;0.90;;;-3.60;99.90;;;;;;5099082;28;20495;-84
2022/12/14 00:53:10;;;;;;;0.40;0.40;;;-3.60;99.90;;;;;;5065971;28;20043;-84
2022/12/14 00:55:41;;;;;;;0.35;0.35;;;-3.60;99.90;;;;;;5099394;28;20495;-84
2022/12/14 00:58:08;;;;;;;1.23;0.68;;;-3.60;99.90;;;;;;5084021;28;20372;-83
2022/12/14 01:00:37;;;;;;;1.02;1.02;;;-3.70;99.90;;;;;;5102932;28;20089;-83
2022/12/14 01:03:04;;;;;;;2.05;0.75;;;-3.30;99.90;;;;;;5082237;28;20058;-82
2022/12/14 01:05:32;;;;;;;3.13;1.35;;;-3.70;99.90;;;;;;5100200;28;20054;-83
2022/12/14 01:07:58;;;;;;;0.10;0.10;;;-3.70;99.90;;;;;;5085613;28;20051;-83
2022/12/14 01:10:23;;;;;;;6.18;1.85;;;-3.70;99.90;;;;;;5082242;28;20431;-83
2022/12/14 01:12:49;;;;;;;5.97;2.75;;;-3.70;99.90;;;;;;5065387;28;20040;-83
2022/12/14 01:15:18;;;;;;;0.52;0.52;;;-3.80;99.90;;;;;;5082369;28;20108;-84
2022/12/14 01:17:44;;;;;;;0.32;0.32;;;-3.70;99.90;;;;;;5081670;28;20044;-83
2022/12/14 01:20:10;;;;;;;1.13;1.13;;;-3.80;99.90;;;;;;5098582;28;20097;-84
2022/12/14 01:22:36;;;;;;;0.10;0.10;;;-3.80;99.90;;;;;;5081816;28;20494;-83
2022/12/14 01:25:03;;;;;;;0.80;0.80;;;-3.80;99.90;;;;;;5081181;28;20054;-83
2022/12/14 01:27:29;;;;;;;0.00;0.00;;;-3.80;99.90;;;;;;5098672;28;20050;-83
2022/12/14 01:29:54;;;;;;;2.13;0.90;;;-3.80;99.90;;;;;;5081884;28;20490;-83
2022/12/14 01:32:20;;;;;;;0.20;0.20;;;-3.90;99.90;;;;;;5081613;28;20134;-83
2022/12/14 01:34:48;;;;;;;0.00;0.00;;;-3.90;99.90;;;;;;5098977;28;20048;-83
2022/12/14 01:37:14;;;;;;;0.55;0.17;;;-3.90;99.90;;;;;;5098617;28;20074;-83
2022/12/14 01:39:39;;;;;;;0.30;0.30;;;-4.00;99.90;;;;;;5098469;28;20044;-83
2022/12/14 01:42:14;;;;;;;2.40;0.70;;;-4.10;99.90;;;;;;5098333;28;20054;-83
2022/12/14 01:44:43;;;;;;;0.30;0.30;;;-4.10;99.90;;;;;;5081128;28;20055;-83
2022/12/14 01:47:25;;;;;;;1.10;1.05;;;-4.00;99.90;;;;;;5080788;28;20104;-83
2022/12/14 01:50:01;;;;;;;1.08;0.80;;;-4.10;99.90;;;;;;5081568;28;20087;-83
2022/12/14 01:52:33;;;;;;;0.95;0.90;;;-4.10;99.90;;;;;;5081247;28;20050;-83
2022/12/14 01:55:37;;;;;;;0.32;0.32;;;-4.20;99.90;;;;;;5098534;28;20127;-83
2022/12/14 01:58:13;;;;;;;1.33;1.23;;;-4.20;99.90;;;;;;5059921;28;20051;-83
2022/12/14 02:00:39;;;;;;;2.30;1.65;;;-4.10;99.90;;;;;;5098216;28;20468;-82
2022/12/14 02:03:25;;;;;;;0.47;0.47;;;-4.30;99.90;;;;;;5097755;28;20051;-83
2022/12/14 02:06:01;;;;;;;3.50;1.88;;;-4.30;99.90;;;;;;5097613;28;20040;-83
2022/12/14 02:08:27;;;;;;;0.17;0.17;;;-4.30;99.90;;;;;;5097669;28;20057;-83
2022/12/14 02:10:54;;;;;;;0.00;0.00;;;-4.40;99.90;;;;;;5081038;28;20039;-83
2022/12/14 02:13:25;;;;;;;0.00;0.00;;;-4.50;99.90;;;;;;5097864;28;20035;-83
2022/12/14 02:15:51;;;;;;;1.58;1.50;;;-4.60;99.90;;;;;;5080562;28;20044;-83
2022/12/14 02:18:20;;;;;;;0.30;0.30;;;-4.60;99.90;;;;;;5080603;28;20047;-83
2022/12/14 02:21:09;;;;;;;0.20;0.20;;;-4.50;99.90;;;;;;5080964;28;20100;-83
2022/12/14 02:23:56;;;;;;;0.57;0.57;;;-4.60;99.90;;;;;;5080488;28;20082;-82
2022/12/14 02:27:01;;;;;;;10.13;0.82;;;-4.60;99.90;;;;;;5097361;28;20560;-83
2022/12/14 02:29:52;;;;;;;1.10;1.10;;;-4.70;99.90;;;;;;5097413;28;20077;-82
2022/12/14 02:32:48;;;;;;;1.80;1.35;;;-4.80;99.90;;;;;;5080221;28;20196;-82
2022/12/14 02:35:25;;;;;;;0.00;0.00;;;-4.80;99.90;;;;;;5080477;28;20146;-82
2022/12/14 02:37:51;;;;;;;0.25;0.25;;;-4.90;99.90;;;;;;5080399;28;20055;-83
2022/12/14 02:40:38;;;;;;;1.75;1.27;;;-4.90;99.90;;;;;;5080238;28;20043;-82
2022/12/14 02:43:35;;;;;;;0.20;0.20;;;-4.90;99.90;;;;;;5096950;28;20069;-82
2022/12/14 02:46:15;;;;;;;1.27;1.27;;;-4.90;99.90;;;;;;5097306;28;20050;-82
2022/12/14 02:48:58;;;;;;;0.22;0.22;;;-4.90;99.90;;;;;;5080259;28;20044;-83
2022/12/14 02:51:30;;;;;;;0.00;0.00;;;-5.00;99.90;;;;;;5080196;28;20040;-83
2022/12/14 02:54:02;;;;;;;1.83;1.17;;;-5.00;99.90;;;;;;5079892;28;20050;-82
2022/12/14 02:56:35;;;;;;;0.00;0.00;;;-5.00;99.90;;;;;;5080618;28;20089;-82
2022/12/14 02:59:02;;;;;;;0.80;0.38;;;-5.10;99.90;;;;;;5079780;28;20154;-83
2022/12/14 03:01:29;;;;;;;0.60;0.60;;;-5.10;99.90;;;;;;5096681;28;20039;-83
2022/12/14 03:03:54;;;;;;;0.55;0.55;;;-5.20;99.90;;;;;;5079881;28;20491;-82
2022/12/14 03:06:25;;;;;;;0.20;0.20;;;-5.20;99.90;;;;;;5079973;28;20131;-82
2022/12/14 03:09:02;;;;;;;15.52;1.63;;;-5.20;99.90;;;;;;5079990;28;20070;-82
2022/12/14 03:11:39;;;;;;;6.70;1.10;;;-5.20;99.90;;;;;;5096966;28;20391;-82
2022/12/14 03:14:41;;;;;;;1.45;1.42;;;-5.20;99.90;;;;;;5080018;28;20048;-82
2022/12/14 03:17:20;;;;;;;0.55;0.55;;;-5.20;99.90;;;;;;5074706;28;20064;-83
2022/12/14 03:19:57;;;;;;;0.55;0.55;;;-5.20;99.90;;;;;;5080226;28;20122;-82
2022/12/14 03:22:46;;;;;;;0.63;0.63;;;-5.10;99.90;;;;;;5079989;28;20044;-82
2022/12/14 03:25:23;;;;;;;0.68;0.52;;;-5.10;99.90;;;;;;5079548;28;20052;-83
2022/12/14 03:27:58;;;;;;;0.45;0.45;;;-5.10;99.90;;;;;;5096650;28;20443;-82
2022/12/14 03:30:24;;;;;;;0.47;0.47;;;-5.20;99.90;;;;;;5079772;28;20043;-82
2022/12/14 03:32:53;;;;;;;4.47;2.17;;;-5.30;99.90;;;;;;5079977;28;20065;-83
2022/12/14 03:35:30;;;;;;;0.52;0.52;;;-5.30;99.90;;;;;;5079552;28;20095;-82
2022/12/14 03:38:25;;;;;;;0.10;0.10;;;-5.30;99.90;;;;;;5079871;28;20066;-83
2022/12/14 03:41:10;;;;;;;;;;;-5.30;99.90;;;;;;5097427;28;20056;-82
2022/12/14 03:44:03;;;;;;;0.70;0.70;;;-5.40;99.90;;;;;;5096176;28;19920;-83
2022/12/14 03:46:40;;;;;;;0.00;0.00;;;-5.30;99.90;;;;;;5095962;28;20040;-82
2022/12/14 03:49:22;;;;;;;1.05;0.98;;;-5.30;99.90;;;;;;5096745;28;20047;-82
2022/12/14 03:52:05;;;;;;;1.60;1.55;;;-5.30;99.90;;;;;;5096406;28;20419;-82
2022/12/14 03:54:52;;;;;;;0.25;0.25;;;-5.40;99.90;;;;;;5079677;28;20059;-82
2022/12/14 03:57:54;;;;;;;1.10;1.08;;;-5.40;99.90;;;;;;5080014;28;20086;-82
2022/12/14 04:00:23;;;;;;;0.10;0.10;;;-5.40;99.90;;;;;;5094602;28;20404;-82
2022/12/14 04:03:17;;;;;;;0.77;0.77;;;-5.50;99.90;;;;;;5096036;28;20090;-82
2022/12/14 04:05:49;;;;;;;0.38;0.38;;;-5.50;99.90;;;;;;5097771;28;20086;-82
2022/12/14 04:08:30;;;;;;;0.40;0.40;;;-5.40;99.90;;;;;;5083038;28;20482;-82
2022/12/14 04:19:29;;;;;;;0.45;0.40;;;-5.00;99.90;;;;;;5085666;28;20049;-82
2022/12/14 04:22:05;;;;;;;0.70;0.65;;;-5.50;99.90;;;;;;5083272;28;20043;-82
2022/12/14 04:27:57;;;;;;;1.35;1.25;;;-5.50;99.90;;;;;;5099885;28;20059;-82
2022/12/14 04:30:23;;;;;;;1.25;0.65;;;-5.50;99.90;;;;;;5083206;28;20404;-82
2022/12/14 04:33:45;;;;;;;0.43;0.43;;;-5.50;99.90;;;;;;5082791;28;20143;-82
2022/12/14 04:35:49;;;;;;;0.32;0.32;;;-5.50;99.90;;;;;;5099407;28;20058;-82
2022/12/14 04:38:26;;;;;;;0.10;0.10;;;-5.60;99.90;;;;;;5082570;28;20051;-82
2022/12/14 04:40:58;;;;;;;1.30;1.25;;;-5.60;99.90;;;;;;5083027;28;20449;-82
2022/12/14 04:43:28;;;;;;;0.20;0.15;;;-5.70;99.90;;;;;;5099556;28;20585;-82
2022/12/14 04:45:58;;;;;;;0.00;0.00;;;-5.70;99.90;;;;;;5082022;28;20518;-83
2022/12/14 04:48:30;;;;;;;1.20;1.17;;;-5.70;99.90;;;;;;5082405;28;20047;-83
2022/12/14 04:51:38;;;;;;;0.30;0.30;;;-5.70;99.90;;;;;;5099341;28;20044;-82
2022/12/14 04:54:13;;;;;;;8.25;1.95;;;-5.70;99.90;;;;;;5049133;28;20142;-82
2022/12/14 04:56:49;;;;;;;1.30;0.30;;;-5.70;99.90;;;;;;5099334;28;20039;-82
2022/12/14 04:59:18;;;;;;;1.02;0.93;;;-5.70;99.90;;;;;;5083330;28;20131;-82
2022/12/14 05:01:56;;;;;;;0.90;0.90;;;-5.70;99.90;;;;;;5082544;28;20055;-82
2022/12/14 05:04:27;;;;;;;1.15;0.70;;;-5.70;99.90;;;;;;5099310;28;20075;-83
2022/12/14 05:07:19;;;;;;;0.00;0.00;;;-5.70;99.90;;;;;;5082191;28;20495;-83
2022/12/14 05:10:00;;;;;;;0.68;0.68;;;-5.70;99.90;;;;;;5082480;28;20047;-83
2022/12/14 05:12:56;;;;;;;0.15;0.15;;;-5.70;99.90;;;;;;5099222;28;20407;-82
2022/12/14 05:15:25;;;;;;;0.00;0.00;;;-5.80;99.90;;;;;;5099260;28;20051;-83
2022/12/14 05:17:52;;;;;;;2.30;0.80;;;-5.80;99.90;;;;;;5098086;28;20043;-82
2022/12/14 05:20:21;;;;;;;2.45;1.55;;;-5.90;99.90;;;;;;5082136;28;20478;-83
2022/12/14 05:22:47;;;;;;;5.55;1.00;;;-5.90;99.90;;;;;;5081385;28;20043;-83
2022/12/14 05:25:15;;;;;;;0.20;0.20;;;-6.00;99.90;;;;;;5048136;28;20138;-82
2022/12/14 05:27:41;;;;;;;0.40;0.40;;;-6.00;99.90;;;;;;5081600;28;20492;-82
2022/12/14 05:30:08;;;;;;;0.75;0.75;;;-6.00;99.90;;;;;;5098545;28;20134;-82
2022/12/14 05:32:33;;;;;;;0.32;0.20;;;-6.00;99.90;;;;;;5081805;28;20100;-82
2022/12/14 05:35:00;;;;;;;0.05;0.05;;;-6.00;99.90;;;;;;5081747;28;20052;-82
2022/12/14 05:37:26;;;;;;;3.30;0.63;;;-6.00;99.90;;;;;;5081497;28;20083;-82
2022/12/14 05:39:52;;;;;;;1.02;1.02;;;-6.00;99.90;;;;;;5098416;28;20078;-82
2022/12/14 05:42:18;;;;;;;9.85;1.35;;;-5.90;99.90;;;;;;5081396;28;20055;-82
2022/12/14 05:44:44;;;;;;;1.63;1.13;;;-5.90;99.90;;;;;;5080897;28;20151;-82
2022/12/14 05:47:09;;;;;;;0.00;0.00;;;-5.80;99.90;;;;;;5081169;28;20044;-82
2022/12/14 05:49:35;;;;;;;0.17;0.17;;;-5.80;99.90;;;;;;5098602;28;20475;-82
2022/12/14 05:52:03;;;;;;;1.15;0.90;;;-5.80;99.90;;;;;;5098575;28;20475;-82
2022/12/14 05:54:31;;;;;;;4.28;1.38;;;-5.80;99.90;;;;;;5069662;28;20134;-83
2022/12/14 05:56:57;;;;;;;0.38;0.35;;;-5.80;99.90;;;;;;5104738;28;20047;-82
2022/12/14 05:59:23;;;;;;;0.08;0.08;;;-5.90;99.90;;;;;;5101886;28;20479;-82
2022/12/14 06:01:49;;;;;;;0.00;0.00;;;-5.90;99.90;;;;;;5097705;28;20046;-82
2022/12/14 06:04:18;;;;;;;0.20;0.20;;;-5.90;99.90;;;;;;5080795;28;20055;-82
2022/12/14 06:06:44;;;;;;;1.98;1.88;;;-6.00;99.90;;;;;;5098096;28;20135;-82
2022/12/14 06:09:14;;;;;;;0.65;0.65;;;-6.10;99.90;;;;;;5080701;28;20138;-82
2022/12/14 06:11:41;;;;;;;1.05;1.02;;;-5.80;99.90;;;;;;5081070;28;20051;-82
2022/12/14 06:14:08;;;;;;;0.28;0.25;;;-6.10;99.90;;;;;;5097761;28;20083;-82
2022/12/14 06:16:34;;;;;;;0.65;0.55;;;-6.10;99.90;;;;;;5080247;28;20048;-82
2022/12/14 06:19:05;;;;;;;1.35;1.30;;;-6.10;99.90;;;;;;5097749;28;20434;-82
2022/12/14 06:21:34;;;;;;;0.10;0.10;;;-6.10;99.90;;;;;;5098013;28;20062;-82
2022/12/14 06:24:00;;;;;;;0.98;0.98;;;-6.20;99.90;;;;;;5080624;28;20040;-82
2022/12/14 06:26:28;;;;;;;0.05;0.05;;;-6.10;99.90;;;;;;5096858;28;20058;-82
2022/12/14 06:28:54;;;;;;;0.40;0.40;;;-6.20;99.90;;;;;;5079359;28;20384;-82
2022/12/14 06:31:23;;;;;;;0.75;0.75;;;-6.20;99.90;;;;;;5080826;28;20396;-82
2022/12/14 06:33:49;;;;;;;1.95;1.65;;;-6.20;99.90;;;;;;5080169;28;20051;-82
2022/12/14 06:36:29;;;;;;;1.30;0.73;;;-6.20;99.90;;;;;;5080417;28;20047;-82
2022/12/14 06:38:58;;;;;;;0.60;0.60;;;-6.20;99.90;;;;;;5079979;28;20107;-82
2022/12/14 06:41:24;;;;;;;2.95;0.88;;;-6.20;99.90;;;;;;5080337;28;20047;-82
2022/12/14 06:43:50;;;;;;;0.32;0.32;;;-6.20;99.90;;;;;;5063341;28;20052;-83
2022/12/14 06:46:20;;;;;;;0.52;0.52;;;-6.20;99.90;;;;;;5080158;28;20048;-81
2022/12/14 06:48:53;;;;;;;2.50;2.30;;;-6.30;99.90;;;;;;5096862;28;20043;-82
2022/12/14 06:51:23;;;;;;;4.63;1.75;;;-6.30;99.90;;;;;;5096813;28;20043;-82
2022/12/14 06:53:53;;;;;;;0.90;0.40;;;-6.30;99.90;;;;;;5096791;28;20047;-82
2022/12/14 06:56:20;;;;;;;0.85;0.85;;;-6.40;99.90;;;;;;5097069;28;20046;-82
2022/12/14 06:58:49;;;;;;;0.25;0.25;;;-6.40;99.90;;;;;;5096800;28;20047;-82
2022/12/14 07:01:17;;;;;;;0.47;0.47;;;-6.40;99.90;;;;;;5080261;28;20494;-82
2022/12/14 07:03:47;;;;;;;2.90;1.35;;;-6.40;99.90;;;;;;5080031;28;20043;-82
2022/12/14 07:06:13;;;;;;;0.00;0.00;;;-6.50;99.90;;;;;;5096912;28;20070;-82
2022/12/14 07:08:39;;;;;;;0.00;0.00;;;-6.50;99.90;;;;;;5080183;28;20463;-81
2022/12/14 07:11:08;;;;;;;0.00;0.00;;;-6.50;99.90;;;;;;5096903;28;20044;-82
2022/12/14 07:13:34;;;;;;;0.40;0.40;;;-6.50;99.90;;;;;;5114853;28;20047;-82
2022/12/14 07:16:00;;;;;;;0.30;0.30;;;-6.30;99.90;;;;;;5062569;28;20056;-82
2022/12/14 07:18:26;;;;;;;0.00;0.00;;;-6.50;99.90;;;;;;5096793;28;20044;-82
2022/12/14 07:21:05;;;;;;;0.75;0.75;;;-6.20;99.90;;;;;;5079939;28;20047;-82
2022/12/14 07:23:33;;;;;;;0.10;0.10;;;-6.40;99.90;;;;;;5079834;28;20036;-82
2022/12/14 07:26:26;;;;;;;0.45;0.45;;;-6.40;99.90;;;;;;5079151;28;20419;-81
2022/12/14 07:28:52;;;;;;;0.35;0.35;;;-6.30;99.90;;;;;;5096501;28;20487;-81
2022/12/14 07:31:28;;;;;;;1.95;1.85;;;-6.30;99.90;;;;;;5096097;28;20052;-82
2022/12/14 07:33:56;;;;;;;1.02;0.80;;;-6.30;99.90;;;;;;5079719;28;20052;-82
2022/12/14 07:36:23;;;;;;;0.32;0.32;;;-6.30;99.90;;;;;;5096680;28;20138;-82
2022/12/14 07:38:50;;;;;;;23.75;1.35;;;-6.30;99.90;;;;;;5096744;28;20075;-82
2022/12/14 07:41:22;;;;;;;1.55;1.40;;;-6.30;99.90;;;;;;5100834;28;20040;-82
2022/12/14 07:43:49;;;;;;;0.00;0.00;;;-6.30;99.90;;;;;;5083515;28;20047;-82
2022/12/14 07:46:17;;;;;;;1.55;0.63;;;-6.20;99.90;;;;;;5100332;28;20056;-82
2022/12/14 07:48:44;;;;;;;0.10;0.10;;;-6.30;99.90;;;;;;5100685;28;20043;-82
2022/12/14 07:51:12;;;;;;;0.20;0.20;;;-6.30;99.90;;;;;;5083416;28;20051;-82
2022/12/14 07:53:38;;;;;;;0.03;0.03;;;-6.30;99.90;;;;;;5083391;28;20491;-82
2022/12/14 07:56:07;;;;;;;0.88;0.50;;;-6.10;99.90;;;;;;5083324;28;20044;-82
2022/12/14 07:58:35;;;;;;;0.85;0.22;;;-6.20;99.90;;;;;;5083308;28;20050;-82
2022/12/14 08:01:13;;;;;;;1.48;1.38;;;-6.20;99.90;;;;;;5100196;28;20054;-82
2022/12/14 08:03:44;;;;;;;1.58;1.55;;;-6.10;99.90;;;;;;5099921;28;20046;-81
2022/12/14 08:06:12;;;;;;;0.25;0.25;;;-6.10;99.90;;;;;;5082891;28;20077;-83
2022/12/14 08:08:38;;;;;;;3.38;3.08;;;-6.20;99.90;;;;;;5083194;28;20055;-83
2022/12/14 08:11:05;;;;;;;0.30;0.30;;;-6.30;99.90;;;;;;5081637;28;20334;-82
2022/12/14 08:13:30;;;;;;;1.67;1.58;;;-6.30;99.90;;;;;;5099933;28;20460;-82
2022/12/14 08:16:05;;;;;;;0.40;0.40;;;-6.30;99.90;;;;;;5066118;28;20083;-82
2022/12/14 08:18:32;;;;;;;0.45;0.45;;;-6.40;99.90;;;;;;5100303;28;20051;-82
2022/12/14 08:20:58;;;;;;;0.47;0.47;;;-6.40;99.90;;;;;;5083299;28;20047;-82
2022/12/14 08:23:24;;;;;;;0.10;0.10;;;-6.40;99.90;;;;;;5083174;28;20484;-82
2022/12/14 08:25:55;;;;;;;0.50;0.50;;;-6.50;99.90;;;;;;5099596;28;20052;-82
2022/12/14 08:28:21;;;;;;;1.17;1.17;;;-6.50;99.90;;;;;;5099739;28;20052;-83
2022/12/14 08:30:47;;;;;;;0.40;0.40;;;-6.50;99.90;;;;;;5082937;28;20051;-82
2022/12/14 08:33:13;;;;;;;0.00;0.00;;;-6.50;99.90;;;;;;5099367;28;20499;-83
2022/12/14 08:35:39;;;;;;;0.85;0.85;;;-6.40;99.90;;;;;;5099354;28;20149;-82
2022/12/14 08:38:04;;;;;;;0.00;0.00;;;-6.40;99.90;;;;;;5066040;28;20047;-83
2022/12/14 08:40:34;;;;;;;0.40;0.40;;;-6.30;99.90;;;;;;5099598;28;20047;-83
2022/12/14 08:43:00;;;;;;;0.25;0.25;;;-6.20;99.90;;;;;;5099465;28;20092;-83
2022/12/14 08:45:25;;;;;;;0.00;0.00;;;-5.90;99.90;;;;;;5099197;28;20047;-82
2022/12/14 08:47:51;;;;;;;1.10;1.00;;;-5.00;99.90;;;;;;5098884;28;20047;-82
2022/12/14 08:50:17;;;;;;;1.17;0.75;;;-4.10;99.90;;;;;;5082041;28;20138;-83
2022/12/14 08:52:46;;;;;;;1.15;1.10;;;-3.10;99.90;;;;;;5098906;28;20075;-83
2022/12/14 08:55:15;;;;;;;0.10;0.10;;;-1.90;99.90;;;;;;5099343;28;20044;-83
2022/12/14 08:57:41;;;;;;;1.75;1.65;;;-1.10;99.90;;;;;;5099484;28;20054;-83
2022/12/14 09:00:10;;;;;;;0.85;0.63;;;-0.20;99.90;;;;;;5082368;28;20467;-83
2022/12/14 09:02:36;;;;;;;1.30;1.08;;;0.30;99.90;;;;;;5082944;28;20100;-84
2022/12/14 09:05:02;;;;;;;1.23;1.13;;;0.30;99.90;;;;;;5082245;28;20043;-84
2022/12/14 09:07:29;;;;;;;0.57;0.47;;;0.00;99.90;;;;;;5099119;28;20043;-84
2022/12/14 09:09:55;;;;;;;1.35;0.45;;;-0.30;99.90;;;;;;5099518;28;20204;-83
2022/12/14 09:12:20;;;;;;;0.52;0.52;;;-0.80;99.90;;;;;;5098877;28;20091;-83
2022/12/14 09:14:48;;;;;;;5.63;0.80;;;-1.20;99.90;;;;;;5063037;28;20047;-85
2022/12/14 09:17:15;;;;;;;33.70;2.97;;;-1.40;99.90;;;;;;5063078;28;20132;-83
2022/12/14 09:19:40;;;;;;;2.13;0.80;;;-1.50;99.90;;;;;;5078954;28;20173;-86
2022/12/14 09:22:06;;;;;;;1.45;0.68;;;-1.40;99.90;;;;;;5064616;28;20457;-84
2022/12/14 09:24:32;;;;;;;0.68;0.68;;;-0.60;99.90;;;;;;5082542;28;20067;-84
2022/12/14 09:27:00;;;;;;;1.30;1.20;;;0.50;99.90;;;;;;5099163;28;20050;-84
2022/12/14 09:29:26;;;;;;;2.40;2.03;;;1.20;99.90;;;;;;5065663;28;20483;-84
2022/12/14 09:31:53;;;;;;;0.43;0.13;;;2.10;99.90;;;;;;5081683;28;20044;-82
2022/12/14 09:34:20;;;;;;;0.60;0.38;;;2.70;99.90;;;;;;5097678;28;20048;-83
2022/12/14 09:36:47;;;;;;;0.80;0.80;;;3.40;99.90;;;;;;5098629;28;20035;-84
2022/12/14 09:39:13;;;;;;;3.60;0.95;;;4.00;99.90;;;;;;5098575;28;20047;-85
2022/12/14 09:41:51;;;;;;;0.22;0.22;;;4.20;99.90;;;;;;5098669;28;20107;-84
2022/12/14 09:44:44;;;;;;;2.90;0.95;;;4.60;98.30;;;;;;5081331;28;20046;-84
2022/12/14 09:47:25;;;;;;;0.00;0.00;;;4.80;96.10;;;;;;5098232;28;20039;-84
2022/12/14 09:50:09;;;;;;;3.40;1.55;;;4.70;95.40;;;;;;5097883;28;20135;-83
2022/12/14 09:53:06;;;;;;;0.95;0.65;;;5.10;97.20;;;;;;5081163;28;20052;-83
2022/12/14 09:55:47;;;;;;;5.50;1.05;;;5.30;96.90;;;;;;5096408;28;20091;-83
2022/12/14 09:58:36;;;;;;;0.95;0.95;;;5.00;93.70;;;;;;5080961;28;20055;-83
2022/12/14 10:01:23;;;;;;;3.35;1.48;;;4.70;94.90;;;;;;5097447;28;20079;-83
2022/12/14 10:03:57;;;;;;;11.15;2.78;;;4.70;97.40;;;;;;5079246;28;20134;-83
2022/12/14 10:06:54;;;;;;;5.90;1.15;;;4.50;96.20;;;;;;5097705;28;20048;-83
2022/12/14 10:09:42;;;;;;;1.85;1.40;;;4.00;98.10;;;;;;5080973;28;20487;-83
2022/12/14 10:12:10;;;;;;;0.80;0.80;;;3.30;97.50;;;;;;5080712;28;20096;-83
2022/12/14 10:15:06;;;;;;;2.55;1.33;;;2.90;99.60;;;;;;5097663;28;20047;-83
2022/12/14 10:17:38;;;;;;;;;;;2.30;99.20;;;;;;5080613;28;20047;-83
2022/12/14 10:20:18;;;;;;;1.25;1.20;;;2.40;99.90;;;;;;5097150;28;20372;-82
2022/12/14 10:22:48;;;;;;;1.17;1.08;;;2.90;99.90;;;;;;5080409;28;20051;-83
2022/12/14 10:25:26;;;;;;;0.10;0.10;;;3.20;99.10;;;;;;5096908;28;20124;-82
2022/12/14 10:28:16;;;;;;;0.30;0.28;;;3.30;98.10;;;;;;5080802;28;20047;-82
2022/12/14 10:30:43;;;;;;;0.00;0.00;;;3.70;98.30;;;;;;5088290;28;20114;-83
2022/12/14 10:33:23;;;;;;;0.05;0.05;;;4.20;97.80;;;;;;5064266;28;20055;-83
2022/12/14 10:35:59;;;;;;;0.75;0.40;;;4.60;96.10;;;;;;5102165;28;20164;-83
2022/12/14 10:38:45;;;;;;;0.73;0.60;;;5.00;95.60;;;;;;5089142;28;20111;-82
2022/12/14 10:41:35;;;;;;;2.17;0.15;;;5.40;95.50;;;;;;5104880;28;20521;-83
2022/12/14 10:44:12;;;;;;;1.13;0.47;;;5.10;96.90;;;;;;5102874;28;20491;-83
2022/12/14 10:47:14;;;;;;;1.33;0.98;;;5.20;95.40;;;;;;5098013;28;20517;-83
2022/12/14 10:50:03;;;;;;;2.83;0.30;;;5.40;94.00;;;;;;5094138;28;20066;-83
2022/12/14 10:52:36;;;;;;;0.38;0.38;;;5.50;93.00;;;;;;5083998;28;20048;-83
2022/12/14 10:55:10;;;;;;;0.57;0.57;;;5.50;92.80;;;;;;5099569;28;20043;-82
2022/12/14 10:57:35;;;;;;;1.55;1.35;;;5.60;92.30;;;;;;5081238;28;20050;-82
2022/12/14 11:00:03;;;;;;;1.95;0.65;;;5.80;92.50;;;;;;5048804;28;20055;-82
2022/12/14 11:02:38;;;;;;;1.13;1.13;;;6.10;93.20;;;;;;5099116;28;20107;-82
2022/12/14 11:05:15;;;;;;;;;;;6.40;92.00;;;;;;5080442;28;20039;-82
2022/12/14 11:07:44;;;;;;;1.25;1.17;;;6.70;91.80;;;;;;5079924;28;19927;-82
2022/12/14 11:10:34;;;;;;;1.85;0.45;;;7.10;89.70;;;;;;5079847;28;20112;-82
2022/12/14 11:13:05;;;;;;;1.35;0.40;;;7.30;90.00;;;;;;5079932;28;20051;-82
2022/12/14 11:15:36;;;;;;;1.40;0.95;;;7.30;86.10;;;;;;5079525;28;20047;-82
2022/12/14 11:18:27;;;;;;;6.82;0.20;;;7.50;86.00;;;;;;5096385;28;20047;-81
2022/12/14 11:21:07;;;;;;;0.25;0.25;;;7.50;83.90;;;;;;5097263;28;20047;-82
2022/12/14 11:23:38;;;;;;;0.43;0.43;;;7.80;83.00;;;;;;5096843;28;20391;-82
2022/12/14 11:26:27;;;;;;;0.85;0.57;;;7.70;82.40;;;;;;5079535;28;20571;-82
2022/12/14 11:28:56;;;;;;;0.35;0.22;;;7.40;82.30;;;;;;5096326;28;20048;-82
2022/12/14 11:31:33;;;;;;;0.98;0.90;;;7.00;81.10;;;;;;5079666;28;20390;-81
2022/12/14 11:34:02;;;;;;;5.47;1.13;;;6.80;80.80;;;;;;5079776;28;20108;-82
2022/12/14 11:36:40;;;;;;;0.60;0.60;;;7.00;82.00;;;;;;5079683;28;20138;-82
2022/12/14 11:39:21;;;;;;;0.50;0.50;;;7.00;81.60;;;;;;5096542;28;20051;-82
2022/12/14 11:42:00;;;;;;;0.35;0.30;;;7.30;81.70;;;;;;5096558;28;20047;-83
2022/12/14 11:44:34;;;;;;;0.63;0.63;;;7.40;81.40;;;;;;5096291;28;20039;-83
2022/12/14 11:47:05;;;;;;;0.30;0.15;;;7.40;82.00;;;;;;5096243;28;20056;-82
2022/12/14 11:49:41;;;;;;;2.15;0.85;;;7.40;80.40;;;;;;5096384;28;20039;-82
2022/12/14 11:52:19;;;;;;;2.25;1.92;;;7.40;81.70;;;;;;5079442;28;20044;-81
2022/12/14 11:55:09;;;;;;;1.13;0.45;;;7.10;81.20;;;;;;5096675;28;20087;-82
2022/12/14 11:57:57;;;;;;;3.53;1.05;;;6.60;84.60;;;;;;5079355;28;20052;-81
2022/12/14 12:00:24;;;;;;;0.20;0.20;;;6.00;87.20;;;;;;5096247;28;20047;-81
2022/12/14 12:03:24;;;;;;;2.40;0.50;;;5.90;89.50;;;;;;5096382;28;20492;-81
2022/12/14 12:05:52;;;;;;;0.35;0.25;;;5.80;90.60;;;;;;5096914;28;20455;-81
2022/12/14 12:08:25;;;;;;;1.38;1.00;;;6.00;90.50;;;;;;5079644;28;20081;-81
2022/12/14 12:10:54;;;;;;;0.22;0.22;;;6.00;91.10;;;;;;5096251;28;20059;-81
2022/12/14 12:13:28;;;;;;;0.00;0.00;;;6.20;91.40;;;;;;5096639;28;20499;-81
2022/12/14 12:16:00;;;;;;;0.82;0.82;;;6.20;90.40;;;;;;5096393;28;20055;-81
2022/12/14 12:18:44;;;;;;;0.52;0.52;;;6.10;90.20;;;;;;5095711;28;20109;-81
2022/12/14 12:21:31;;;;;;;0.10;0.10;;;6.10;91.50;;;;;;5079307;28;20055;-81
2022/12/14 12:24:05;;;;;;;0.57;0.57;;;6.00;91.50;;;;;;5096078;28;20047;-81
2022/12/14 12:26:35;;;;;;;0.17;0.15;;;5.90;91.40;;;;;;5080425;28;20547;-81
2022/12/14 12:29:15;;;;;;;0.43;0.43;;;5.80;92.30;;;;;;5100131;28;20058;-81
2022/12/14 12:31:57;;;;;;;1.10;0.93;;;5.60;92.50;;;;;;5099767;28;20172;-81
2022/12/14 12:34:31;;;;;;;2.28;0.57;;;5.50;91.40;;;;;;5082960;28;20047;-81
2022/12/14 12:37:04;;;;;;;1.65;0.85;;;5.20;91.30;;;;;;5082935;28;20035;-81
2022/12/14 12:39:30;;;;;;;0.22;0.20;;;5.20;92.20;;;;;;5082928;28;20083;-81
2022/12/14 12:42:08;;;;;;;0.98;0.65;;;5.10;92.70;;;;;;5082811;28;20466;-81
2022/12/14 12:44:39;;;;;;;0.55;0.45;;;4.80;92.30;;;;;;5082542;28;20040;-81
2022/12/14 12:47:20;;;;;;;3.63;0.50;;;4.50;93.20;;;;;;5082267;28;20142;-81
2022/12/14 12:49:46;;;;;;;1.02;0.35;;;4.10;94.50;;;;;;5099544;28;20134;-81
2022/12/14 12:52:24;;;;;;;2.20;0.85;;;3.80;96.20;;;;;;5117622;28;20066;-81
2022/12/14 12:55:13;;;;;;;0.25;0.25;;;3.70;97.10;;;;;;5082481;28;20048;-81
2022/12/14 12:57:43;;;;;;;0.20;0.15;;;3.60;97.70;;;;;;5099343;28;20051;-81
2022/12/14 13:00:19;;;;;;;0.90;0.52;;;3.60;98.00;;;;;;5099330;28;20055;-81
2022/12/14 13:02:53;;;;;;;1.30;0.65;;;3.40;98.90;;;;;;5081932;28;20050;-81
2022/12/14 13:05:24;;;;;;;0.90;0.55;;;3.30;99.90;;;;;;5099034;28;20051;-81
2022/12/14 13:07:57;;;;;;;0.35;0.35;;;3.00;99.90;;;;;;5099008;28;20051;-81
2022/12/14 13:10:27;;;;;;;0.75;0.75;;;2.80;99.90;;;;;;5081975;28;20043;-81
2022/12/14 13:13:06;;;;;;;0.52;0.47;;;2.60;99.90;;;;;;5098627;28;20100;-81
2022/12/14 13:15:38;;;;;;;0.28;0.28;;;2.50;99.90;;;;;;5099231;28;20391;-82
2022/12/14 13:18:29;;;;;;;0.10;0.10;;;2.40;99.90;;;;;;5081588;28;20077;-81
2022/12/14 13:20:55;;;;;;;0.00;0.00;;;2.30;99.90;;;;;;5075067;28;20548;-82
2022/12/14 13:23:24;;;;;;;3.38;0.10;;;2.30;99.90;;;;;;5098748;28;20043;-81
2022/12/14 13:26:29;;;;;;;0.10;0.10;;;2.30;99.90;;;;;;5081194;28;20056;-81
2022/12/14 13:29:26;;;;;;;0.30;0.30;;;2.30;99.90;;;;;;5082314;28;20155;-81
2022/12/14 13:31:55;;;;;;;0.20;0.20;;;2.20;99.90;;;;;;5081752;28;20047;-82
2022/12/14 13:34:39;;;;;;;0.15;0.08;;;2.10;99.90;;;;;;5098487;28;20051;-82